CDT,Max TemperatureF,Mean TemperatureF,Min TemperatureF,Max Dew PointF,MeanDew PointF,Min DewpointF,Max Humidity, Mean Humidity, Min Humidity, Max Sea Level PressureIn, Mean Sea Level PressureIn, Min Sea Level PressureIn, Max VisibilityMiles, Mean VisibilityMiles, Min VisibilityMiles, Max Wind SpeedMPH, Mean Wind SpeedMPH, Max Gust SpeedMPH,PrecipitationIn, CloudCover, Events, WindDirDegrees
2014-4-1,74,60,45,49,43,35,92,60,28,30.06,30.00,29.96,10,10,10,15,6,19,0.00,2,,299
2014-4-2,76,65,54,65,57,41,100,78,56,30.01,29.92,29.87,10,8,2,21,9,26,0.07,8,Rain,135
2014-4-3,76,69,62,67,64,61,93,81,69,29.87,29.73,29.65,10,8,1,46,13,57,1.49,7,Rain-Thunderstorm,202
2014-4-4,58,52,45,38,35,32,62,55,47,30.15,29.85,29.62,10,10,10,32,17,40,0.40,5,Rain-Thunderstorm,315
2014-4-5,57,50,42,36,32,29,70,54,38,30.24,30.17,30.12,10,10,10,17,7,21,0.00,3,,32
2014-4-6,62,51,39,45,37,34,92,66,39,30.12,30.00,29.81,10,10,10,13,6,19,0.00,1,,77
2014-4-7,54,48,42,47,44,39,100,80,59,29.84,29.66,29.55,10,6,1,24,11,33,0.65,8,Rain,350
2014-4-8,62,51,39,48,41,36,93,66,39,30.01,29.85,29.79,10,10,6,21,7,27,0.05,4,Rain,294
2014-4-9,67,53,38,42,37,31,85,57,28,30.16,30.08,30.02,10,10,10,16,9,26,0.00,0,,238
2014-4-10,76,64,51,55,47,39,68,57,46,30.04,29.95,29.86,10,10,10,30,18,41,0.00,0,,195
2014-4-11,72,62,52,58,52,48,93,73,53,30.08,30.03,29.94,10,10,9,21,5,28,T,1,,169
2014-4-12,76,66,56,59,55,52,86,68,50,30.06,29.96,29.85,10,10,10,31,16,41,0.00,1,,184
2014-4-13,73,67,60,63,60,56,93,80,66,29.86,29.77,29.63,10,9,2,31,18,43,0.81,6,Rain-Thunderstorm,194
2014-4-14,61,50,38,59,48,31,93,82,71,30.06,29.80,29.59,10,8,2,28,14,37,0.24,7,Rain,312
2014-4-15,50,41,31,30,24,20,75,53,31,30.27,30.18,30.07,10,10,10,25,11,32,0.00,1,,357
2014-4-16,56,44,32,37,30,26,86,61,35,30.33,30.23,30.13,10,10,10,17,8,23,0.00,0,,144
2014-4-17,67,51,34,47,40,32,92,66,40,30.31,30.24,30.17,10,10,9,16,6,23,0.00,0,,172
2014-4-18,75,60,44,47,44,41,93,62,31,30.29,30.23,30.18,10,10,8,13,4,16,0.00,2,,33
2014-4-19,77,61,44,49,44,40,93,60,27,30.26,30.20,30.15,10,10,8,12,2,16,0.00,0,,79
2014-4-20,78,62,45,52,47,43,93,62,30,30.22,30.15,30.07,10,10,7,13,4,18,0.00,0,,155
2014-4-21,73,63,53,63,56,49,87,73,58,30.06,29.99,29.90,10,9,6,15,6,19,0.09,4,Rain,217
2014-4-22,72,60,47,63,49,36,97,63,29,29.99,29.94,29.87,10,8,4,21,11,26,0.01,2,,337
2014-4-23,70,55,40,44,40,38,89,60,31,30.10,30.02,29.96,10,10,10,13,6,16,0.00,0,,112
2014-4-24,80,66,51,62,50,37,93,62,31,29.97,29.78,29.65,10,9,2,23,13,32,0.52,3,Rain-Thunderstorm,174
2014-4-25,76,65,53,56,50,39,93,61,29,29.98,29.84,29.68,10,10,5,24,8,32,0.05,3,Rain-Thunderstorm,271
2014-4-26,77,63,48,54,50,45,93,68,43,29.98,29.91,29.83,10,10,10,14,5,18,0.00,0,,177
2014-4-27,74,68,62,66,61,52,93,80,67,29.81,29.70,29.57,10,7,0,33,13,47,2.22,6,Fog-Rain-Thunderstorm,158
2014-4-28,75,65,55,67,60,53,90,72,53,29.68,29.57,29.44,10,7,2,29,11,37,1.41,6,Rain-Thunderstorm,145
2014-4-29,66,57,48,51,47,42,89,71,52,29.80,29.64,29.55,10,10,10,26,11,35,0.00,1,,213
2014-4-30,59,52,45,45,42,37,89,70,51,29.97,29.89,29.78,10,10,10,21,8,24,0.00,6,,261